Nev'yansk, Russia
Current Conditions -  °F | °C
As of 6:00 PM on Sunday 23 Nov 2014 (Local Time) from USSS Reporting Station
Clear Clear  
Wind Chill: -20°   Ceiling: Unl
Heat Index: -2°   Visibility: 6mi
Dew Point: -8°   Wind: 11mph
Humidity: 78%   Direction: 350°N
Pressure: 30.39"   Gusts: NA
Location:  57.3°N, 60.13°E
Report Text: USSS 231300Z 35005MPS CAVOK M19/M22 Q1029 76810350 NOSIG RMKQFE751
Loading
Personal Weather Stations






























Interactive Weather Map New forecast layout! Learn more

10-Day Weather Forecast

Advertisements
Track Severe Weather on mobile